메인 페이지
METAR-TAF:

METAR-TAF

공항 :

Little Rock Air Force Base

잭슨빌, 아칸소, 미국

위도: 34-55N, 경도: 092-09W, 고도: 95m

현재 날씨관측

예보는 28분 전, 00:56시(UTC)에 발표되었습니다.
무풍
온도 3°C
습도 87%
기압 1021 hPa
시정: 16.1km
맑음

METAR: KLRF 170056Z AUTO 00000KT 10SM CLR 03/01 A3015 RMK AO2 SLP216 T00290009 $

시각: 19:24 (01:24 UTC)

예보

예보는 2 시간 23분 전, 23:01시(UTC)에 발표되었습니다.
예보 대상 시간: 16일 23시부터 18일 05시까지 (UTC)
북동6kt
시정 10km 이상
고도 25000ft 상공 구름 조금
전환 중
17일 07시부터 17일 08시까지 (UTC)
여러 방향의 바람 6kt
시정 10km 이상
고도 18000ft 상공 구름 조금
전환 중
18일 02시부터 18일 03시까지 (UTC)
북서6kt
시정 10km 이상
고도 2500ft 상공 구름 보통

TAF: KLRF 162301Z 1623/1805 05006KT 9999 FEW250 QNH3014INS BECMG 1707/1708 VRB06KT 9999 FEW180 QNH3005INS BECMG 1802/1803 31006KT 9999 SCT025 QNH3002INS TX12/1720Z TNM01/1711Z

4,000개 이상의 공항 관측 자료 및 예보 (METAR 및 TAF 보고).

지도상에서 검색 가능한 기상관측소가 노란 점과 빨간 점으로 표시되어 있습니다.

기상관측소 명을 보려면 표시 위로 마우스를 이동하세요.

날씨 관측과 예보를 보려면 클릭하세요.

지도 변경 : 확대하려면 엑스 표시가 있는 녹색 버튼, 축소하려면 빼기 표시가 있는 녹색 버튼, 다음 페이지의 지도를 보려면 녹색 화살표를 클릭하세요.


METAR-TAF: